^^
Station Historical Data
Daily Summary for June 12, 2017 Units:  English    Metric   Both
« Previous Day
Next Day »
Daily Weekly Monthly Yearly Custom
  High: Low: Average:
Temperature: 93.2 °F 70.7 °F 82.7 °F
Dew Point: 67.3 °F 62.4 °F 64.5 °F
Humidity: 76% 38% 56%
Wind Speed: 5.0mph 0.0mph 1.4mph
Wind Gust: 12.0mph - -
Wind- - SW
Pressure: 30.04 in 29.90 in -
Precipitation: 0.00 in    
Historical Graphs
 
 
Tabular Data for June 12, 2017
Time Temperature Dew Point Pressure Wind Wind Speed Wind Gust Humidity Rainfall Rate (Hourly) Conditions
00:00 79.1 °F 63.5 °F 30.00 in SSW 1.0 mph 4.0 mph 59% 0.00 in CLR
00:15 78.6 °F 63.6 °F 30.00 in SSW 1.0 mph 5.0 mph 60% 0.00 in CLR
00:30 78.5 °F 63.5 °F 30.00 in SSW 1.0 mph 6.0 mph 60% 0.00 in CLR
00:45 77.7 °F 63.6 °F 30.00 in Calm   6.0 mph 62% 0.00 in CLR
01:00 77.1 °F 63.5 °F 30.00 in Calm   3.0 mph 63% 0.00 in CLR
01:15 76.5 °F 63.8 °F 30.00 in Calm   3.0 mph 65% 0.00 in CLR
01:30 76.2 °F 64.0 °F 30.00 in SSW 2.0 mph 9.0 mph 66% 0.00 in CLR
01:45 76.8 °F 63.7 °F 30.00 in SSW 1.0 mph 6.0 mph 64% 0.00 in CLR
02:00 76.4 °F 63.8 °F 29.99 in SW 2.0 mph 7.0 mph 65% 0.00 in CLR
02:15 76.2 °F 64.0 °F 29.99 in SW 1.0 mph 6.0 mph 66% 0.00 in CLR
02:30 75.9 °F 64.2 °F 30.00 in SW 5.0 mph 8.0 mph 67% 0.00 in CLR
02:45 75.9 °F 64.2 °F 29.99 in SSW 2.0 mph 10.0 mph 67% 0.00 in CLR
03:00 75.4 °F 63.7 °F 29.99 in SSW 2.0 mph 8.0 mph 67% 0.00 in CLR
03:15 74.8 °F 63.9 °F 30.00 in Calm   5.0 mph 69% 0.00 in CLR
03:30 74.2 °F 63.8 °F 30.00 in Calm   3.0 mph 70% 0.00 in CLR
03:45 73.4 °F 63.4 °F 30.00 in Calm   1.0 mph 71% 0.00 in CLR
04:00 72.6 °F 63.8 °F 30.00 in Calm   3.0 mph 74% 0.00 in CLR
04:15 71.7 °F 63.7 °F 30.00 in SSW 2.0 mph 4.0 mph 76% 0.00 in CLR
04:30 71.5 °F 63.5 °F 30.01 in Calm   2.0 mph 76% 0.00 in CLR
04:45 71.4 °F 63.1 °F 30.01 in Calm   2.0 mph 75% 0.00 in CLR
05:00 72.1 °F 63.0 °F 30.02 in Calm   4.0 mph 73% 0.00 in CLR
05:15 71.6 °F 62.9 °F 30.02 in Calm   2.0 mph 74% 0.00 in CLR
05:30 71.2 °F 62.9 °F 30.03 in Calm   2.0 mph 75% 0.00 in CLR
05:45 71.0 °F 62.7 °F 30.03 in Calm   2.0 mph 75% 0.00 in CLR
06:00 70.8 °F 62.5 °F 30.03 in Calm     75% 0.00 in CLR
06:15 70.7 °F 62.8 °F 30.03 in Calm   1.0 mph 76% 0.00 in CLR
06:30 70.8 °F 62.5 °F 30.04 in Calm   1.0 mph 75% 0.00 in CLR
06:45 71.0 °F 62.7 °F 30.04 in Calm   1.0 mph 75% 0.00 in CLR
07:00 71.4 °F 62.7 °F 30.04 in SSW 1.0 mph 3.0 mph 74% 0.00 in CLR
07:15 72.0 °F 62.9 °F 30.04 in South 1.0 mph 4.0 mph 73% 0.00 in CLR
07:30 72.7 °F 63.2 °F 30.04 in Calm   3.0 mph 72% 0.00 in CLR
07:45 74.5 °F 63.7 °F 30.04 in Calm   1.0 mph 69% 0.00 in CLR
08:00 76.4 °F 64.2 °F 30.04 in Calm   3.0 mph 66% 0.00 in CLR
08:15 77.5 °F 64.3 °F 30.04 in South 1.0 mph 6.0 mph 64% 0.00 in CLR
08:30 78.1 °F 64.9 °F 30.04 in SSW 2.0 mph 8.0 mph 64% 0.00 in CLR
08:45 78.2 °F 65.0 °F 30.04 in SW 3.0 mph 9.0 mph 64% 0.00 in CLR
09:00 80.3 °F 66.6 °F 30.04 in Calm   6.0 mph 63% 0.00 in CLR
09:15 81.4 °F 66.2 °F 30.04 in SSW 2.0 mph 6.0 mph 60% 0.00 in CLR
09:30 81.7 °F 67.0 °F 30.03 in South 1.0 mph 6.0 mph 61% 0.00 in CLR
09:45 83.0 °F 66.7 °F 30.03 in SW 3.0 mph 6.0 mph 58% 0.00 in CLR
10:00 84.0 °F 66.6 °F 30.03 in SSW 3.0 mph 5.0 mph 56% 0.00 in CLR
10:15 83.8 °F 65.9 °F 30.02 in SSW 2.0 mph 6.0 mph 55% 0.00 in CLR
10:30 84.4 °F 67.0 °F 30.02 in SW 2.0 mph 9.0 mph 56% 0.00 in CLR
10:45 84.7 °F 67.3 °F 30.01 in SSW 3.0 mph 8.0 mph 56% 0.00 in CLR
11:00 85.9 °F 66.8 °F 30.02 in South 3.0 mph 7.0 mph 53% 0.00 in CLR
11:15 86.9 °F 65.4 °F 30.01 in SW 2.0 mph 7.0 mph 49% 0.00 in CLR
11:30 87.7 °F 66.2 °F 30.01 in SW 2.0 mph 7.0 mph 49% 0.00 in CLR
11:45 89.1 °F 66.9 °F 30.01 in South 2.0 mph 8.0 mph 48% 0.00 in CLR
12:00 89.0 °F 65.5 °F 30.01 in SW 2.0 mph 6.0 mph 46% 0.00 in CLR
12:15 90.0 °F 65.8 °F 30.00 in WSW 2.0 mph 6.0 mph 45% 0.00 in CLR
12:30 89.0 °F 64.3 °F 30.00 in NW 2.0 mph 8.0 mph 44% 0.00 in CLR
12:45 89.9 °F 64.4 °F 30.00 in Calm   7.0 mph 43% 0.00 in CLR
13:00 90.6 °F 65.7 °F 30.00 in NNW 1.0 mph 6.0 mph 44% 0.00 in CLR
13:15 90.5 °F 64.2 °F 29.99 in North 1.0 mph 6.0 mph 42% 0.00 in FEW
13:30 90.5 °F 64.3 °F 29.98 in West 3.0 mph 6.0 mph 42% 0.00 in FEW
13:45 91.4 °F 64.4 °F 29.98 in WNW 5.0 mph 6.0 mph 41% 0.00 in FEW
14:00 91.5 °F 64.5 °F 29.97 in West 3.0 mph 6.0 mph 41% 0.00 in FEW
14:15 91.7 °F 64.0 °F 29.97 in Calm   6.0 mph 40% 0.00 in FEW
14:30 91.7 °F 63.9 °F 29.96 in SW 1.0 mph 6.0 mph 40% 0.00 in FEW
14:45 92.5 °F 64.7 °F 29.95 in SW 3.0 mph 9.0 mph 40% 0.00 in FEW
15:00 91.6 °F 62.4 °F 29.95 in SW 1.0 mph 9.0 mph 38% 0.00 in FEW
15:15 91.6 °F 63.9 °F 29.95 in SW 3.0 mph 7.0 mph 40% 0.00 in FEW
15:30 92.2 °F 63.7 °F 29.95 in WSW 5.0 mph 7.0 mph 39% 0.00 in FEW
15:45 92.6 °F 65.4 °F 29.94 in SW 1.0 mph 8.0 mph 41% 0.00 in FEW
16:00 92.0 °F 64.9 °F 29.94 in WSW 2.0 mph 6.0 mph 41% 0.00 in FEW
16:15 92.6 °F 66.2 °F 29.93 in SW 2.0 mph 7.0 mph 42% 0.00 in FEW
16:30 93.2 °F 64.6 °F 29.93 in SW 3.0 mph 7.0 mph 39% 0.00 in FEW
16:45 92.9 °F 66.4 °F 29.92 in WSW 3.0 mph 8.0 mph 42% 0.00 in FEW
17:00 92.9 °F 66.4 °F 29.92 in SW 1.0 mph 8.0 mph 42% 0.00 in FEW
17:15 92.5 °F 66.7 °F 29.92 in WSW 1.0 mph 8.0 mph 43% 0.00 in FEW
17:30 93.1 °F 66.6 °F 29.92 in WSW 2.0 mph 8.0 mph 42% 0.00 in FEW
17:45 92.5 °F 66.1 °F 29.91 in SW 2.0 mph 7.0 mph 42% 0.00 in FEW
18:00 93.2 °F 66.7 °F 29.91 in WSW 1.0 mph 5.0 mph 42% 0.00 in FEW
18:15 92.2 °F 65.8 °F 29.90 in SW 2.0 mph 7.0 mph 42% 0.00 in FEW
18:30 91.3 °F 65.0 °F 29.91 in SW 5.0 mph 7.0 mph 42% 0.00 in FEW
18:45 90.7 °F 63.8 °F 29.92 in SSW 3.0 mph 12.0 mph 41% 0.00 in FEW
19:00 90.6 °F 64.4 °F 29.92 in SSW 2.0 mph 7.0 mph 42% 0.00 in FEW
19:15 90.0 °F 64.5 °F 29.92 in WSW 1.0 mph 8.0 mph 43% 0.00 in CLR
19:30 89.2 °F 64.4 °F 29.92 in SW 3.0 mph 9.0 mph 44% 0.00 in CLR
19:45 88.4 °F 65.0 °F 29.92 in Calm   8.0 mph 46% 0.00 in CLR
20:00 87.2 °F 63.9 °F 29.92 in SSW 3.0 mph 6.0 mph 46% 0.00 in CLR
20:15 86.3 °F 64.3 °F 29.92 in Calm   8.0 mph 48% 0.00 in CLR
20:30 85.5 °F 64.2 °F 29.92 in South 2.0 mph 5.0 mph 49% 0.00 in CLR
20:45 84.7 °F 64.5 °F 29.92 in Calm   4.0 mph 51% 0.00 in CLR
21:00 84.2 °F 64.1 °F 29.92 in South 1.0 mph 4.0 mph 51% 0.00 in CLR
21:15 83.4 °F 63.9 °F 29.93 in Calm   4.0 mph 52% 0.00 in CLR
21:30 82.7 °F 64.4 °F 29.93 in Calm   3.0 mph 54% 0.00 in CLR
21:45 82.2 °F 64.4 °F 29.93 in Calm   3.0 mph 55% 0.00 in CLR
22:00 81.6 °F 64.9 °F 29.93 in Calm   3.0 mph 57% 0.00 in CLR
22:15 80.6 °F 64.5 °F 29.94 in South 1.0 mph 4.0 mph 58% 0.00 in CLR
22:30 80.7 °F 64.5 °F 29.94 in Calm   4.0 mph 58% 0.00 in CLR
22:45 80.5 °F 64.4 °F 29.94 in Calm   3.0 mph 58% 0.00 in CLR
23:00 80.3 °F 64.7 °F 29.93 in SSW 1.0 mph 4.0 mph 59% 0.00 in CLR
23:15 80.1 °F 64.4 °F 29.94 in SSW 1.0 mph 6.0 mph 59% 0.00 in CLR
23:30 79.8 °F 64.7 °F 29.94 in South 2.0 mph 5.0 mph 60% 0.00 in CLR
23:45 79.5 °F 64.4 °F 29.94 in South 1.0 mph 3.0 mph 60% 0.00 in CLR
TarryTown NY Weather
Compliments of Weather Underground - 1.5 mb